Time;durP1;ratioP1;P1;durP2;ratioP2;P2;SDS_P1;SDS_P2;PMS_P1;PMS_P2;Temp;Humidity;BMP_temperature;BMP_pressure;BME280_temperature;BME280_humidity;BME280_pressure;Samples;Min_cycle;Max_cycle;Signal;HPM_P1;HPM_P2
2023/04/08 00:02:11;;;;;;;178.98;114.45;;;6.40;99.90;;;;;;4892764;29;20040;-78
2023/04/08 00:04:38;;;;;;;178.95;111.18;;;6.40;99.90;;;;;;4894008;29;20060;-78
2023/04/08 00:07:06;;;;;;;163.07;99.88;;;6.40;99.90;;;;;;4896676;29;20063;-79
2023/04/08 00:09:33;;;;;;;175.93;107.38;;;6.40;99.90;;;;;;4901163;29;20047;-79
2023/04/08 00:12:01;;;;;;;178.00;110.55;;;6.40;99.90;;;;;;4896391;29;20191;-79
2023/04/08 00:14:30;;;;;;;179.55;109.30;;;6.30;99.90;;;;;;4905477;29;20048;-78
2023/04/08 00:16:58;;;;;;;169.13;106.80;;;6.30;99.90;;;;;;4905119;29;20232;-76
2023/04/08 00:19:25;;;;;;;167.20;101.88;;;6.30;99.90;;;;;;4896142;29;20497;-79
2023/04/08 00:21:53;;;;;;;160.93;97.22;;;6.30;99.90;;;;;;4892817;29;20048;-80
2023/04/08 00:24:20;;;;;;;154.10;97.50;;;6.10;99.90;;;;;;4893046;29;20481;-79
2023/04/08 00:26:48;;;;;;;151.10;93.88;;;6.10;99.90;;;;;;4876788;29;20116;-78
2023/04/08 00:29:15;;;;;;;145.60;92.90;;;6.10;99.90;;;;;;4893670;29;20074;-77
2023/04/08 00:31:44;;;;;;;146.75;94.50;;;6.10;99.90;;;;;;4876711;29;20100;-79
2023/04/08 00:34:12;;;;;;;159.40;97.70;;;6.10;99.90;;;;;;4875219;29;20045;-79
2023/04/08 00:36:39;;;;;;;175.73;103.68;;;6.10;99.90;;;;;;4875001;29;20144;-79
2023/04/08 00:39:06;;;;;;;175.60;106.45;;;6.10;99.90;;;;;;4893041;29;20512;-78
2023/04/08 00:41:35;;;;;;;166.50;103.70;;;6.10;99.90;;;;;;4869267;29;20545;-78
2023/04/08 00:44:02;;;;;;;158.63;95.57;;;6.10;99.90;;;;;;4895789;29;20052;-79
2023/04/08 00:46:31;;;;;;;134.63;85.75;;;6.20;99.90;;;;;;4895654;29;20049;-79
2023/04/08 00:49:01;;;;;;;130.10;83.25;;;6.20;99.90;;;;;;4896134;29;20497;-78
2023/04/08 00:51:30;;;;;;;124.60;77.93;;;6.20;99.90;;;;;;4895210;29;20100;-78
2023/04/08 00:53:59;;;;;;;123.22;76.07;;;6.10;99.90;;;;;;4887050;29;20104;-79
2023/04/08 00:56:27;;;;;;;127.85;82.10;;;6.10;99.90;;;;;;4896084;29;20116;-77
2023/04/08 00:58:56;;;;;;;132.02;86.15;;;6.00;99.90;;;;;;4895618;29;20064;-78
2023/04/08 01:01:35;;;;;;;129.13;80.07;;;6.00;99.90;;;;;;4878987;29;20048;-77
2023/04/08 01:04:13;;;;;;;117.32;72.55;;;5.90;99.90;;;;;;4893715;29;20413;-76
2023/04/08 01:06:46;;;;;;;116.72;72.25;;;5.90;99.90;;;;;;4893655;29;20135;-78
2023/04/08 01:09:17;;;;;;;104.35;67.93;;;5.90;99.90;;;;;;4895103;29;20060;-76
2023/04/08 01:11:49;;;;;;;98.25;64.32;;;5.90;99.90;;;;;;4894188;29;20060;-76
2023/04/08 01:14:20;;;;;;;99.05;60.92;;;5.90;99.90;;;;;;4894908;29;20055;-76
2023/04/08 01:16:48;;;;;;;94.20;58.50;;;6.00;99.90;;;;;;4893973;29;20044;-77
2023/04/08 01:19:22;;;;;;;86.20;55.42;;;6.00;99.90;;;;;;4877965;29;20041;-77
2023/04/08 01:21:51;;;;;;;76.72;50.42;;;6.00;99.90;;;;;;4877930;29;20049;-79
2023/04/08 01:24:26;;;;;;;75.25;49.90;;;6.00;99.90;;;;;;4877245;29;20072;-79
2023/04/08 01:26:58;;;;;;;88.28;60.45;;;6.00;99.90;;;;;;4877774;29;20059;-77
2023/04/08 01:29:26;;;;;;;94.20;62.20;;;5.90;99.90;;;;;;4894062;29;20049;-78
2023/04/08 01:31:55;;;;;;;103.40;68.68;;;5.90;99.90;;;;;;4895732;29;20116;-78
2023/04/08 01:34:25;;;;;;;118.18;73.57;;;5.90;99.90;;;;;;4886706;29;20289;-80
2023/04/08 01:36:56;;;;;;;113.97;71.63;;;5.90;99.90;;;;;;4894462;29;20116;-79
2023/04/08 01:39:25;;;;;;;116.75;74.45;;;5.90;99.90;;;;;;4881541;29;20045;-77
2023/04/08 01:41:54;;;;;;;123.88;80.80;;;5.80;99.90;;;;;;4898205;29;20051;-78
2023/04/08 01:44:26;;;;;;;114.03;76.70;;;5.80;99.90;;;;;;4898776;29;20061;-77
2023/04/08 01:46:55;;;;;;;111.93;75.85;;;5.70;99.90;;;;;;4892909;29;20055;-77
2023/04/08 01:49:25;;;;;;;100.75;70.50;;;5.80;99.90;;;;;;4877628;29;20048;-76
2023/04/08 01:51:53;;;;;;;94.78;64.85;;;5.70;99.90;;;;;;4894843;29;20075;-79
2023/04/08 01:54:21;;;;;;;83.45;58.08;;;5.70;99.90;;;;;;4895310;29;20064;-79
2023/04/08 01:56:50;;;;;;;90.43;61.35;;;5.60;99.90;;;;;;4896028;29;20056;-78
2023/04/08 01:59:21;;;;;;;79.78;53.75;;;5.60;99.90;;;;;;4879279;29;20249;-80
2023/04/08 02:01:51;;;;;;;95.00;65.30;;;5.60;99.90;;;;;;4898580;23;20071;-73
2023/04/08 02:04:19;;;;;;;96.20;63.85;;;5.60;99.90;;;;;;4895025;29;20053;-76
2023/04/08 02:06:47;;;;;;;84.60;57.90;;;5.60;99.90;;;;;;4894818;29;20045;-73
2023/04/08 02:09:14;;;;;;;82.05;51.72;;;5.50;99.90;;;;;;4878063;29;20051;-73
2023/04/08 02:11:41;;;;;;;80.35;50.35;;;5.40;99.90;;;;;;4894150;29;20036;-75
2023/04/08 02:14:09;;;;;;;71.85;48.55;;;5.40;99.90;;;;;;4893799;29;20051;-75
2023/04/08 02:16:43;;;;;;;69.18;46.67;;;5.40;99.90;;;;;;4886004;29;20051;-73
2023/04/08 02:19:18;;;;;;;73.60;46.20;;;5.30;99.90;;;;;;4894128;29;20066;-74
2023/04/08 02:21:49;;;;;;;66.03;44.88;;;5.30;99.90;;;;;;4894533;29;20037;-74
2023/04/08 02:24:17;;;;;;;64.05;42.45;;;5.30;99.90;;;;;;4883821;29;20152;-74
2023/04/08 02:26:47;;;;;;;62.13;42.75;;;5.40;99.90;;;;;;4895995;29;20139;-74
2023/04/08 02:29:17;;;;;;;59.88;40.88;;;5.30;99.90;;;;;;4894161;29;20052;-73
2023/04/08 02:31:45;;;;;;;62.42;40.58;;;5.30;99.90;;;;;;4894441;29;20036;-75
2023/04/08 02:34:17;;;;;;;58.92;39.25;;;5.20;99.90;;;;;;4894150;29;20050;-74
2023/04/08 02:36:46;;;;;;;58.88;38.95;;;5.20;99.90;;;;;;4894410;29;20136;-73
2023/04/08 02:39:14;;;;;;;62.25;40.72;;;5.20;99.90;;;;;;4877119;29;20434;-73
2023/04/08 02:41:42;;;;;;;57.35;39.13;;;5.20;99.90;;;;;;4894613;29;20045;-75
2023/04/08 02:44:09;;;;;;;66.47;42.97;;;5.20;99.90;;;;;;4899567;29;20065;-75
2023/04/08 02:46:40;;;;;;;64.97;39.78;;;5.20;99.90;;;;;;4888480;29;20056;-75
2023/04/08 02:49:09;;;;;;;69.47;41.10;;;5.20;99.90;;;;;;4876828;29;20040;-74
2023/04/08 02:51:38;;;;;;;98.60;51.72;;;5.20;99.90;;;;;;4875967;29;20060;-74
2023/04/08 02:54:06;;;;;;;99.72;56.30;;;5.20;99.90;;;;;;4884621;29;20056;-75
2023/04/08 02:56:33;;;;;;;114.05;64.65;;;5.10;99.90;;;;;;4896746;29;20040;-73
2023/04/08 02:59:00;;;;;;;89.93;55.42;;;5.00;99.90;;;;;;4918634;29;20047;-74
2023/04/08 03:01:28;;;;;;;84.20;52.42;;;4.90;99.90;;;;;;4905531;29;20057;-74
2023/04/08 03:03:55;;;;;;;83.88;50.95;;;4.90;99.90;;;;;;4877432;29;20057;-73
2023/04/08 03:06:23;;;;;;;82.25;54.83;;;4.90;99.90;;;;;;4893566;29;20048;-74
2023/04/08 03:08:51;;;;;;;88.80;57.38;;;4.90;99.90;;;;;;4894554;29;20051;-73
2023/04/08 03:11:20;;;;;;;85.28;57.13;;;4.90;99.90;;;;;;4894156;29;20072;-73
2023/04/08 03:13:47;;;;;;;88.90;58.72;;;5.00;99.90;;;;;;4894061;29;20045;-73
2023/04/08 03:16:15;;;;;;;87.18;58.03;;;5.00;99.90;;;;;;4893806;29;20056;-73
2023/04/08 03:18:42;;;;;;;96.75;61.70;;;5.00;99.90;;;;;;4896620;29;20112;-73
2023/04/08 03:21:11;;;;;;;92.70;60.22;;;5.00;99.90;;;;;;4894236;29;20107;-74
2023/04/08 03:23:38;;;;;;;87.88;57.20;;;5.00;99.90;;;;;;4894106;29;20089;-74
2023/04/08 03:26:07;;;;;;;88.57;59.58;;;5.00;99.90;;;;;;4892664;29;20509;-74
2023/04/08 03:28:34;;;;;;;82.97;53.58;;;5.10;99.90;;;;;;4894327;29;20104;-73
2023/04/08 03:31:03;;;;;;;79.93;51.75;;;5.00;99.90;;;;;;4897494;29;20147;-76
2023/04/08 03:33:31;;;;;;;71.95;49.53;;;5.00;99.90;;;;;;4894144;29;20105;-74
2023/04/08 03:35:58;;;;;;;75.75;51.35;;;5.00;99.90;;;;;;4893395;29;20053;-73
2023/04/08 03:38:25;;;;;;;68.50;48.78;;;5.00;99.90;;;;;;4893729;29;20088;-74
2023/04/08 03:40:53;;;;;;;75.28;50.92;;;5.00;99.90;;;;;;4892936;29;20045;-75
2023/04/08 03:43:22;;;;;;;84.32;55.83;;;5.00;99.90;;;;;;4868773;29;20092;-74
2023/04/08 03:45:49;;;;;;;108.97;64.75;;;5.00;99.90;;;;;;4892584;29;20425;-74
2023/04/08 03:48:16;;;;;;;106.55;63.88;;;5.00;99.90;;;;;;4898218;29;20060;-73
2023/04/08 03:50:44;;;;;;;95.05;61.45;;;5.00;99.90;;;;;;4909038;29;20064;-78
2023/04/08 03:53:12;;;;;;;89.50;59.63;;;5.00;99.90;;;;;;4915580;29;20077;-74
2023/04/08 03:55:39;;;;;;;92.55;61.70;;;5.00;99.90;;;;;;4884255;29;20089;-73
2023/04/08 03:58:07;;;;;;;96.47;66.93;;;5.00;99.90;;;;;;4905128;29;20064;-73
2023/04/08 04:00:36;;;;;;;100.63;66.45;;;5.00;99.90;;;;;;4905814;29;20075;-74
2023/04/08 04:03:04;;;;;;;105.18;70.43;;;5.00;99.90;;;;;;4898819;29;20063;-74
2023/04/08 04:05:31;;;;;;;108.20;71.28;;;5.00;99.90;;;;;;4893571;29;20037;-74
2023/04/08 04:07:58;;;;;;;110.80;71.80;;;5.00;99.90;;;;;;4903167;29;20303;-74
2023/04/08 04:10:26;;;;;;;104.38;67.30;;;5.10;99.90;;;;;;4899366;29;20579;-73
2023/04/08 04:12:53;;;;;;;101.95;65.90;;;5.10;99.90;;;;;;4882555;29;20101;-74
2023/04/08 04:15:20;;;;;;;98.43;65.55;;;5.10;99.90;;;;;;4876348;29;20044;-73
2023/04/08 04:17:50;;;;;;;88.43;60.67;;;5.10;99.90;;;;;;4897033;29;20040;-74
2023/04/08 04:20:18;;;;;;;87.78;56.67;;;5.10;99.90;;;;;;4896202;29;20426;-74
2023/04/08 04:22:45;;;;;;;87.93;55.38;;;5.10;99.90;;;;;;4895787;29;20044;-74
2023/04/08 04:25:12;;;;;;;90.63;59.60;;;5.10;99.90;;;;;;4896206;29;20081;-74
2023/04/08 04:27:40;;;;;;;93.82;58.80;;;5.00;99.90;;;;;;4896802;29;20048;-73
2023/04/08 04:30:09;;;;;;;123.68;73.30;;;5.00;99.90;;;;;;4897027;29;20052;-73
2023/04/08 04:32:36;;;;;;;128.02;75.07;;;5.00;99.90;;;;;;4896561;29;20486;-75
2023/04/08 04:35:06;;;;;;;130.95;78.20;;;5.00;99.90;;;;;;4895701;29;20504;-74
2023/04/08 04:37:33;;;;;;;133.85;75.97;;;5.00;99.90;;;;;;4896896;29;20044;-75
2023/04/08 04:40:00;;;;;;;121.53;72.63;;;5.10;99.90;;;;;;4895988;29;20051;-74
2023/04/08 04:42:28;;;;;;;100.22;62.50;;;5.10;99.90;;;;;;4896667;29;20051;-75
2023/04/08 04:44:55;;;;;;;79.63;54.25;;;5.10;99.90;;;;;;4896292;29;20037;-75
2023/04/08 04:47:22;;;;;;;83.80;53.88;;;5.20;99.90;;;;;;4897019;29;20040;-74
2023/04/08 04:49:50;;;;;;;80.93;51.92;;;5.20;99.90;;;;;;4896081;29;20422;-74
2023/04/08 04:52:19;;;;;;;73.18;48.83;;;5.20;99.90;;;;;;4895377;29;20104;-76
2023/04/08 04:54:46;;;;;;;74.03;51.00;;;5.20;99.90;;;;;;4895703;29;20092;-75
2023/04/08 04:57:13;;;;;;;87.90;57.97;;;5.30;99.90;;;;;;4896193;29;20420;-75
2023/04/08 04:59:43;;;;;;;82.53;55.65;;;5.30;99.90;;;;;;4880170;29;20398;-74
2023/04/08 05:02:11;;;;;;;86.28;57.92;;;5.30;99.90;;;;;;4895217;29;20428;-73
2023/04/08 05:04:38;;;;;;;93.00;62.47;;;5.30;99.90;;;;;;4895834;29;20059;-73
2023/04/08 05:07:06;;;;;;;93.82;64.35;;;5.30;99.90;;;;;;4897965;29;20051;-73
2023/04/08 05:09:35;;;;;;;80.28;56.63;;;5.40;99.90;;;;;;4896982;29;20058;-74
2023/04/08 05:12:02;;;;;;;87.63;61.20;;;5.40;99.90;;;;;;4896468;29;20045;-73
2023/04/08 05:14:30;;;;;;;87.30;55.63;;;5.40;99.90;;;;;;4896035;29;20051;-73
2023/04/08 05:16:57;;;;;;;71.60;51.28;;;5.50;99.90;;;;;;4896374;29;20053;-74
2023/04/08 05:19:25;;;;;;;75.72;52.03;;;5.50;99.90;;;;;;4894409;29;20051;-74
2023/04/08 05:21:52;;;;;;;86.82;54.50;;;5.60;99.90;;;;;;4894769;29;20049;-73
2023/04/08 05:24:19;;;;;;;86.13;56.10;;;5.70;99.90;;;;;;4894533;29;20105;-73
2023/04/08 05:26:51;;;;;;;103.80;63.90;;;5.70;99.90;;;;;;4896356;29;20053;-74
2023/04/08 05:29:20;;;;;;;99.03;64.97;;;5.70;99.90;;;;;;4899573;29;20076;-75
2023/04/08 05:31:48;;;;;;;105.82;64.78;;;5.70;99.90;;;;;;4902777;29;20040;-74
2023/04/08 05:34:21;;;;;;;116.80;73.45;;;5.70;99.90;;;;;;4894886;29;20062;-74
2023/04/08 05:36:50;;;;;;;123.78;78.43;;;5.70;99.90;;;;;;4879012;29;20136;-73
2023/04/08 05:39:18;;;;;;;124.80;82.20;;;5.80;99.90;;;;;;4895569;29;20505;-73
2023/04/08 05:41:45;;;;;;;121.40;76.72;;;5.80;99.90;;;;;;4895770;29;20044;-74
2023/04/08 05:44:14;;;;;;;113.55;71.32;;;5.90;99.90;;;;;;4895111;29;20036;-74
2023/04/08 05:46:42;;;;;;;100.63;65.18;;;6.10;99.90;;;;;;4878399;29;20056;-74
2023/04/08 05:49:09;;;;;;;94.82;61.88;;;6.20;99.90;;;;;;4894453;29;20116;-73
2023/04/08 05:51:37;;;;;;;86.97;56.67;;;6.30;99.90;;;;;;4876175;29;20044;-73
2023/04/08 05:54:04;;;;;;;83.72;58.00;;;6.40;99.90;;;;;;4895085;29;20044;-74
2023/04/08 05:56:32;;;;;;;88.53;59.05;;;6.50;99.90;;;;;;4894887;29;20087;-74
2023/04/08 05:59:02;;;;;;;84.38;56.78;;;6.70;99.90;;;;;;4896067;29;20067;-75
2023/04/08 06:01:31;;;;;;;89.43;59.15;;;6.80;99.90;;;;;;4894926;29;20104;-74
2023/04/08 06:03:58;;;;;;;99.07;64.20;;;6.90;99.90;;;;;;4894663;29;20132;-74
2023/04/08 06:06:26;;;;;;;86.47;56.03;;;7.00;99.90;;;;;;4896974;29;20055;-76
2023/04/08 06:08:53;;;;;;;93.32;60.03;;;7.00;99.90;;;;;;4909075;29;20048;-76
2023/04/08 06:11:20;;;;;;;86.25;58.13;;;7.20;99.90;;;;;;4908294;29;20087;-73
2023/04/08 06:13:48;;;;;;;84.50;56.40;;;7.30;99.90;;;;;;4898804;29;20047;-73
2023/04/08 06:16:17;;;;;;;79.03;57.38;;;7.30;99.90;;;;;;4895768;29;20048;-75
2023/04/08 06:18:46;;;;;;;92.68;59.10;;;7.20;99.90;;;;;;4897055;29;20211;-73
2023/04/08 06:21:13;;;;;;;93.13;60.05;;;7.30;99.90;;;;;;4895258;29;20493;-74
2023/04/08 06:23:41;;;;;;;92.70;60.25;;;7.30;99.90;;;;;;4894977;29;20047;-74
2023/04/08 06:26:08;;;;;;;83.40;56.45;;;7.20;99.90;;;;;;4893332;29;20134;-75
2023/04/08 06:28:35;;;;;;;87.40;59.63;;;7.20;99.90;;;;;;4894440;29;20044;-74
2023/04/08 06:31:05;;;;;;;90.25;60.58;;;7.20;99.90;;;;;;4894948;29;20041;-75
2023/04/08 06:33:32;;;;;;;89.05;59.75;;;7.30;99.90;;;;;;4897660;29;20043;-74
2023/04/08 06:36:06;;;;;;;89.43;58.35;;;7.20;99.90;;;;;;4877003;29;20045;-75
2023/04/08 06:38:33;;;;;;;92.35;59.95;;;7.10;99.90;;;;;;4893627;29;20037;-75
2023/04/08 06:41:05;;;;;;;82.05;58.55;;;7.10;99.90;;;;;;4895291;29;20135;-76
2023/04/08 06:43:33;;;;;;;82.60;56.05;;;7.10;99.90;;;;;;4895330;29;20033;-76
2023/04/08 06:46:01;;;;;;;87.40;60.03;;;7.20;99.90;;;;;;4893513;29;20048;-75
2023/04/08 06:48:29;;;;;;;83.32;56.95;;;7.30;99.90;;;;;;4894196;29;20040;-74
2023/04/08 06:50:56;;;;;;;82.50;55.80;;;7.40;99.90;;;;;;4894438;29;20055;-75
2023/04/08 06:53:26;;;;;;;86.05;55.15;;;7.60;99.90;;;;;;4898878;29;20513;-74
2023/04/08 06:55:54;;;;;;;82.85;54.55;;;7.70;99.90;;;;;;4899988;29;20454;-76
2023/04/08 06:58:21;;;;;;;87.28;57.03;;;7.90;99.90;;;;;;4894709;29;20044;-75
2023/04/08 07:00:48;;;;;;;90.20;59.67;;;8.10;99.90;;;;;;4893795;29;20961;-74
2023/04/08 07:03:16;;;;;;;106.78;66.22;;;8.20;99.90;;;;;;4893144;29;20066;-76
2023/04/08 07:05:43;;;;;;;95.97;60.45;;;8.30;99.90;;;;;;4894370;29;20100;-74
2023/04/08 07:08:11;;;;;;;94.80;60.00;;;8.40;99.90;;;;;;4885159;29;20418;-75
2023/04/08 07:10:40;;;;;;;88.82;55.88;;;8.60;99.90;;;;;;4893398;29;20099;-75
2023/04/08 07:13:08;;;;;;;75.22;51.20;;;8.80;99.90;;;;;;4893842;29;20135;-73
2023/04/08 07:15:35;;;;;;;74.97;50.58;;;9.00;99.90;;;;;;4893383;29;20497;-73
2023/04/08 07:18:03;;;;;;;78.80;51.70;;;9.30;99.90;;;;;;4894009;29;20055;-74
2023/04/08 07:20:31;;;;;;;71.95;48.13;;;9.60;99.90;;;;;;4894431;29;20056;-73
2023/04/08 07:22:58;;;;;;;75.85;50.00;;;9.90;99.90;;;;;;4893473;29;20505;-73
2023/04/08 07:25:25;;;;;;;72.82;51.33;;;10.10;99.90;;;;;;4893303;29;20049;-75
2023/04/08 07:27:55;;;;;;;74.32;50.58;;;10.30;99.90;;;;;;4894083;29;20426;-74
2023/04/08 07:30:22;;;;;;;78.85;54.00;;;10.60;99.90;;;;;;4894067;29;20059;-75
2023/04/08 07:32:50;;;;;;;72.63;49.33;;;10.90;99.90;;;;;;4893333;29;20075;-74
2023/04/08 07:35:23;;;;;;;68.60;45.67;;;10.70;99.90;;;;;;4893217;29;20048;-75
2023/04/08 07:37:51;;;;;;;73.40;49.75;;;10.70;99.90;;;;;;4893740;29;20051;-75
2023/04/08 07:40:19;;;;;;;72.78;49.30;;;10.80;99.90;;;;;;4894620;29;20055;-74
2023/04/08 07:42:46;;;;;;;71.95;50.88;;;10.80;99.90;;;;;;4894243;29;20040;-74
2023/04/08 07:45:15;;;;;;;70.25;48.97;;;10.90;99.90;;;;;;4893726;29;20509;-75
2023/04/08 07:47:43;;;;;;;69.03;48.53;;;11.00;99.90;;;;;;4894991;29;20052;-74
2023/04/08 07:50:11;;;;;;;64.15;47.15;;;11.00;99.90;;;;;;4894334;29;20540;-76
2023/04/08 07:52:39;;;;;;;68.57;47.50;;;10.90;99.90;;;;;;4896421;29;20045;-73
2023/04/08 07:55:07;;;;;;;67.40;47.95;;;10.90;99.90;;;;;;4898188;29;20076;-73
2023/04/08 07:57:35;;;;;;;75.25;48.95;;;10.70;99.90;;;;;;4897446;29;20079;-73
2023/04/08 08:00:02;;;;;;;64.85;44.90;;;10.50;99.90;;;;;;4897866;29;20123;-75
2023/04/08 08:02:41;;;;;;;62.08;42.58;;;10.70;99.90;;;;;;4897148;29;20134;-75
2023/04/08 08:05:09;;;;;;;58.55;41.53;;;10.80;99.90;;;;;;4887202;29;20576;-74
2023/04/08 08:07:38;;;;;;;57.72;38.92;;;11.10;99.90;;;;;;4897423;29;20422;-75
2023/04/08 08:10:06;;;;;;;60.58;42.92;;;11.50;97.30;;;;;;4889988;29;20393;-74
2023/04/08 08:12:34;;;;;;;65.38;43.22;;;11.80;93.60;;;;;;4900373;29;20048;-76
2023/04/08 08:15:01;;;;;;;59.20;41.92;;;12.00;91.60;;;;;;4907055;29;20040;-75
2023/04/08 08:17:32;;;;;;;54.72;40.45;;;12.20;91.30;;;;;;4905962;29;20054;-75
2023/04/08 08:20:03;;;;;;;51.47;36.67;;;12.40;90.10;;;;;;4909882;29;20044;-75
2023/04/08 08:22:30;;;;;;;39.60;28.02;;;12.50;87.90;;;;;;4901297;29;20076;-75
2023/04/08 08:24:58;;;;;;;43.90;31.58;;;12.30;86.10;;;;;;4896885;29;20056;-74
2023/04/08 08:27:26;;;;;;;45.20;33.50;;;12.20;86.20;;;;;;4880683;29;20207;-74
2023/04/08 08:29:53;;;;;;;39.60;29.58;;;12.00;87.90;;;;;;4897839;29;20069;-76
2023/04/08 08:32:21;;;;;;;36.55;27.65;;;11.90;88.50;;;;;;4897633;29;20048;-73
2023/04/08 08:34:48;;;;;;;48.85;34.35;;;11.90;90.00;;;;;;4886764;29;20124;-75
2023/04/08 08:37:17;;;;;;;41.25;30.25;;;12.00;90.10;;;;;;4897598;29;20048;-75
2023/04/08 08:39:44;;;;;;;40.70;30.88;;;12.10;87.60;;;;;;4896388;29;20092;-74
2023/04/08 08:42:20;;;;;;;44.95;31.48;;;12.20;85.70;;;;;;4881765;29;20059;-74
2023/04/08 08:44:48;;;;;;;44.97;32.83;;;12.30;86.50;;;;;;4896574;29;20047;-74
2023/04/08 08:47:15;;;;;;;45.28;31.55;;;12.40;87.10;;;;;;4886862;29;20368;-73
2023/04/08 08:49:43;;;;;;;34.05;24.00;;;12.60;86.40;;;;;;4896728;29;20052;-75
2023/04/08 08:52:10;;;;;;;28.33;17.75;;;12.70;82.80;;;;;;4896771;29;20425;-75
2023/04/08 08:54:39;;;;;;;31.92;22.65;;;12.30;79.50;;;;;;4879717;29;20065;-75
2023/04/08 08:57:17;;;;;;;26.30;20.60;;;12.30;79.10;;;;;;4895607;29;20140;-75
2023/04/08 08:59:47;;;;;;;31.38;19.77;;;12.50;77.80;;;;;;4896130;29;20036;-73
2023/04/08 09:02:27;;;;;;;26.10;18.90;;;12.60;75.90;;;;;;4895051;29;20053;-76
2023/04/08 09:04:59;;;;;;;25.05;19.17;;;12.40;75.70;;;;;;4872551;29;20457;-74
2023/04/08 09:07:26;;;;;;;21.45;15.07;;;12.50;76.30;;;;;;4879767;29;20040;-76
2023/04/08 09:09:56;;;;;;;23.27;17.77;;;12.60;75.40;;;;;;4896096;29;20052;-75
2023/04/08 09:12:24;;;;;;;25.42;19.60;;;12.70;73.90;;;;;;4896682;29;20037;-75
2023/04/08 09:15:02;;;;;;;33.08;24.13;;;12.30;74.40;;;;;;4895255;29;20339;-76
2023/04/08 09:17:34;;;;;;;33.95;22.27;;;12.40;75.20;;;;;;4897144;29;20076;-75
2023/04/08 09:20:11;;;;;;;31.02;19.98;;;12.50;76.30;;;;;;4896006;29;20113;-74
2023/04/08 09:22:59;;;;;;;30.95;23.88;;;12.80;75.00;;;;;;4898395;29;20037;-76
2023/04/08 09:25:30;;;;;;;29.55;20.92;;;13.20;74.50;;;;;;4899897;29;20037;-74
2023/04/08 09:27:58;;;;;;;32.42;22.60;;;13.60;73.00;;;;;;4899170;29;20047;-74
2023/04/08 09:30:27;;;;;;;30.55;21.10;;;13.70;71.00;;;;;;4897764;29;20044;-75
2023/04/08 09:32:56;;;;;;;29.35;23.02;;;13.60;69.90;;;;;;4880297;29;20152;-77
2023/04/08 09:35:24;;;;;;;26.33;21.10;;;13.60;69.80;;;;;;4900777;29;20048;-75
2023/04/08 09:37:52;;;;;;;25.95;18.88;;;13.80;69.60;;;;;;4886336;29;20432;-75
2023/04/08 09:40:20;;;;;;;26.50;19.52;;;14.10;68.30;;;;;;4900378;29;20052;-76
2023/04/08 09:42:51;;;;;;;24.85;17.70;;;14.20;68.10;;;;;;4905784;29;20041;-76
2023/04/08 09:45:20;;;;;;;27.08;19.48;;;14.20;67.50;;;;;;4899266;29;20375;-76
2023/04/08 09:47:57;;;;;;;24.10;19.10;;;14.10;66.90;;;;;;4878523;29;20045;-77
2023/04/08 09:50:31;;;;;;;19.38;14.48;;;14.30;67.10;;;;;;4896952;29;20109;-75
2023/04/08 09:53:07;;;;;;;17.35;14.52;;;14.50;64.80;;;;;;4894940;29;20092;-75
2023/04/08 09:55:37;;;;;;;25.65;16.83;;;14.50;64.40;;;;;;4897072;29;20044;-76
2023/04/08 09:58:15;;;;;;;18.98;14.95;;;14.30;64.50;;;;;;4879812;29;20064;-74
2023/04/08 10:00:49;;;;;;;19.70;15.27;;;14.50;64.60;;;;;;4896176;29;20073;-76
2023/04/08 10:03:27;;;;;;;18.27;15.23;;;14.30;64.60;;;;;;4897528;29;20055;-76
2023/04/08 10:05:55;;;;;;;19.42;14.75;;;14.40;64.60;;;;;;4895583;29;20052;-77
2023/04/08 10:08:23;;;;;;;21.25;14.80;;;14.80;63.70;;;;;;4898247;29;20045;-75
2023/04/08 10:10:51;;;;;;;20.27;14.70;;;14.90;62.50;;;;;;4897896;29;20077;-76
2023/04/08 10:13:21;;;;;;;19.77;15.45;;;14.80;61.40;;;;;;4896160;29;20096;-75
2023/04/08 10:15:48;;;;;;;22.20;17.35;;;14.60;61.40;;;;;;4895188;29;20123;-76
2023/04/08 10:18:35;;;;;;;22.73;16.50;;;14.90;61.70;;;;;;4897370;29;20096;-74
2023/04/08 10:21:05;;;;;;;18.58;15.98;;;15.20;61.30;;;;;;4900209;29;20069;-77
2023/04/08 10:23:58;;;;;;;20.77;16.38;;;15.50;60.40;;;;;;4882870;29;20112;-75
2023/04/08 10:26:37;;;;;;;21.13;15.82;;;15.50;59.70;;;;;;4894598;29;20083;-75
2023/04/08 10:29:33;;;;;;;23.67;18.60;;;15.30;59.00;;;;;;4896898;29;20409;-75
2023/04/08 10:32:01;;;;;;;24.03;17.93;;;14.80;59.40;;;;;;4887655;29;20064;-77
2023/04/08 10:34:29;;;;;;;33.78;18.25;;;14.20;60.50;;;;;;4896598;29;20052;-75
2023/04/08 10:37:00;;;;;;;19.40;16.27;;;14.00;60.70;;;;;;4896576;29;20052;-75
2023/04/08 10:39:28;;;;;;;21.42;16.83;;;14.10;61.70;;;;;;4896391;29;20048;-76
2023/04/08 10:41:56;;;;;;;21.63;15.23;;;14.20;62.20;;;;;;4880962;29;20048;-75
2023/04/08 10:44:25;;;;;;;21.55;15.68;;;14.50;61.20;;;;;;4894534;29;20049;-77
2023/04/08 10:46:54;;;;;;;19.58;15.15;;;14.70;61.00;;;;;;4898086;29;20414;-75
2023/04/08 10:49:22;;;;;;;19.05;14.88;;;14.80;60.20;;;;;;4890862;29;20045;-76
2023/04/08 10:51:50;;;;;;;19.85;15.80;;;14.60;60.10;;;;;;4916084;29;20052;-76
2023/04/08 10:54:18;;;;;;;20.73;13.98;;;14.50;60.30;;;;;;4908156;29;20079;-77
2023/04/08 10:56:48;;;;;;;19.77;14.95;;;14.60;60.80;;;;;;4897335;29;20041;-76
2023/04/08 10:59:18;;;;;;;21.30;16.17;;;14.90;60.10;;;;;;4896198;29;20049;-77
2023/04/08 11:01:46;;;;;;;25.10;18.08;;;14.90;59.10;;;;;;4894841;29;20472;-75
2023/04/08 11:04:19;;;;;;;23.70;17.00;;;14.60;59.70;;;;;;4893897;29;20131;-74
2023/04/08 11:06:47;;;;;;;18.95;15.63;;;14.40;60.30;;;;;;4909479;29;20052;-76
2023/04/08 11:09:17;;;;;;;17.85;14.45;;;14.30;60.60;;;;;;4885340;29;20045;-76
2023/04/08 11:11:47;;;;;;;16.13;14.38;;;14.20;60.10;;;;;;4895706;29;20041;-77
2023/04/08 11:14:16;;;;;;;21.05;15.10;;;14.00;59.90;;;;;;4894864;29;20072;-75
2023/04/08 11:16:43;;;;;;;17.27;14.82;;;13.90;60.20;;;;;;4894752;29;20048;-77
2023/04/08 11:19:14;;;;;;;17.55;13.95;;;13.80;60.70;;;;;;4894835;29;20052;-78
2023/04/08 11:21:43;;;;;;;16.17;13.82;;;13.70;61.50;;;;;;4894558;29;20060;-76
2023/04/08 11:24:12;;;;;;;15.68;13.32;;;13.70;61.20;;;;;;4892657;29;20123;-78
2023/04/08 11:26:40;;;;;;;14.18;12.52;;;13.50;61.00;;;;;;4895302;29;20493;-78
2023/04/08 11:29:13;;;;;;;15.00;12.80;;;13.40;61.30;;;;;;4894612;29;20592;-76
2023/04/08 11:31:41;;;;;;;20.80;15.20;;;13.40;61.60;;;;;;4894195;29;20065;-78
2023/04/08 11:34:09;;;;;;;19.58;15.52;;;13.50;61.70;;;;;;4893898;29;20497;-77
2023/04/08 11:36:37;;;;;;;18.60;14.50;;;13.40;61.80;;;;;;4893220;29;20048;-77
2023/04/08 11:39:10;;;;;;;26.38;21.65;;;13.50;62.00;;;;;;4893629;29;20124;-76
2023/04/08 11:41:39;;;;;;;34.90;26.33;;;13.40;62.30;;;;;;4892271;29;20056;-76
2023/04/08 11:44:07;;;;;;;23.83;16.80;;;13.20;62.80;;;;;;4892897;29;20479;-76
2023/04/08 11:46:36;;;;;;;22.58;17.50;;;13.30;63.30;;;;;;4893003;29;20037;-75
2023/04/08 11:49:05;;;;;;;17.92;14.15;;;13.20;63.40;;;;;;4893676;29;20429;-75
2023/04/08 11:51:34;;;;;;;16.00;12.98;;;13.20;63.80;;;;;;4892769;29;20092;-73
2023/04/08 11:54:04;;;;;;;16.80;13.20;;;13.20;63.60;;;;;;4893355;29;20049;-76
2023/04/08 11:56:45;;;;;;;20.83;17.02;;;13.20;63.40;;;;;;4893567;29;20473;-76
2023/04/08 11:59:13;;;;;;;24.70;17.67;;;13.30;63.70;;;;;;4894100;29;20083;-74
2023/04/08 12:01:40;;;;;;;22.80;18.02;;;13.30;64.00;;;;;;4892452;29;20037;-75
2023/04/08 12:04:09;;;;;;;25.58;19.63;;;13.20;64.70;;;;;;4892599;29;20051;-74
2023/04/08 12:06:36;;;;;;;25.98;17.85;;;13.30;65.60;;;;;;4893233;29;20040;-74
2023/04/08 12:09:04;;;;;;;19.25;15.93;;;13.50;65.60;;;;;;4893972;29;20193;-76
2023/04/08 12:11:39;;;;;;;18.08;14.73;;;13.60;65.00;;;;;;4893760;29;20051;-74
2023/04/08 12:14:07;;;;;;;17.70;14.75;;;13.30;64.80;;;;;;4893574;29;20040;-75
2023/04/08 12:16:35;;;;;;;16.73;13.88;;;13.40;64.90;;;;;;4894837;29;20076;-75
2023/04/08 12:19:02;;;;;;;18.10;13.68;;;13.60;64.40;;;;;;4895729;29;20055;-75
2023/04/08 12:21:31;;;;;;;19.08;14.95;;;13.80;64.30;;;;;;4879376;29;20048;-76
2023/04/08 12:23:58;;;;;;;16.52;13.05;;;13.90;63.60;;;;;;4896285;29;20044;-77
2023/04/08 12:26:26;;;;;;;19.50;14.80;;;13.90;62.90;;;;;;4897654;29;20059;-76
2023/04/08 12:28:55;;;;;;;17.42;14.05;;;14.10;63.50;;;;;;4893920;29;20052;-75
2023/04/08 12:31:22;;;;;;;17.17;13.70;;;14.00;62.60;;;;;;4894717;29;20053;-75
2023/04/08 12:33:50;;;;;;;16.95;13.05;;;14.20;61.90;;;;;;4895535;29;20115;-74
2023/04/08 12:36:17;;;;;;;16.40;13.32;;;14.20;61.20;;;;;;4898232;29;20117;-74
2023/04/08 12:38:44;;;;;;;22.25;13.57;;;14.40;62.10;;;;;;4910166;29;20410;-74
2023/04/08 12:41:12;;;;;;;17.85;13.38;;;14.30;61.00;;;;;;4898090;29;20067;-75